createdAt,value
2019-03-01T00:00:17.795Z,1001.72
2019-03-01T00:01:17.791Z,1001.67
2019-03-01T00:02:17.786Z,1001.66
2019-03-01T00:03:17.783Z,1001.61
2019-03-01T00:04:17.777Z,1001.65
2019-03-01T00:05:17.780Z,1001.63
2019-03-01T00:06:17.769Z,1001.67
2019-03-01T00:07:17.764Z,1001.63
2019-03-01T00:08:17.762Z,1001.61
2019-03-01T00:09:17.756Z,1001.64
2019-03-01T00:10:17.752Z,1001.59
2019-03-01T00:11:17.748Z,1001.59
2019-03-01T00:12:17.742Z,1001.53
2019-03-01T00:13:17.738Z,1001.53
2019-03-01T00:14:17.735Z,1001.51
2019-03-01T00:15:17.731Z,1001.53
2019-03-01T00:16:17.726Z,1001.48
2019-03-01T00:17:17.723Z,1001.47
2019-03-01T00:18:17.718Z,1001.52
2019-03-01T00:19:17.715Z,1001.51
2019-03-01T00:20:17.709Z,1001.45
2019-03-01T00:21:17.704Z,1001.47
2019-03-01T00:22:17.700Z,1001.46
2019-03-01T00:23:17.698Z,1001.42
2019-03-01T00:24:17.690Z,1001.48
2019-03-01T00:25:17.688Z,1001.49
2019-03-01T00:26:17.684Z,1001.51
2019-03-01T00:27:17.680Z,1001.46
2019-03-01T00:28:17.674Z,1001.45
2019-03-01T00:29:17.670Z,1001.46
2019-03-01T00:30:17.666Z,1001.42
2019-03-01T00:31:17.660Z,1001.47
2019-03-01T00:32:17.655Z,1001.44
2019-03-01T00:33:17.651Z,1001.43
2019-03-01T00:34:17.648Z,1001.40
2019-03-01T00:35:17.644Z,1001.43
2019-03-01T00:36:17.639Z,1001.38
2019-03-01T00:37:17.634Z,1001.36
2019-03-01T00:38:17.633Z,1001.35
2019-03-01T00:39:17.631Z,1001.33
2019-03-01T00:40:17.622Z,1001.32
2019-03-01T00:41:17.618Z,1001.32
2019-03-01T00:42:17.614Z,1001.28
2019-03-01T00:43:17.608Z,1001.28
2019-03-01T00:44:17.603Z,1001.23
2019-03-01T00:45:17.600Z,1001.21
2019-03-01T00:46:17.602Z,1001.22
2019-03-01T00:47:17.592Z,1001.23
2019-03-01T00:48:17.587Z,1001.23
2019-03-01T00:49:17.584Z,1001.21
2019-03-01T00:50:17.579Z,1001.19
2019-03-01T00:51:17.574Z,1001.25
2019-03-01T00:52:17.571Z,1001.27
2019-03-01T00:53:17.567Z,1001.22
2019-03-01T00:54:17.561Z,1001.21
2019-03-01T00:55:17.556Z,1001.22
2019-03-01T00:56:17.551Z,1001.19
2019-03-01T00:57:17.548Z,1001.18
2019-03-01T00:58:17.542Z,1001.19
2019-03-01T00:59:17.544Z,1001.16
2019-03-01T01:00:17.534Z,1001.18
2019-03-01T01:01:17.530Z,1001.20
2019-03-01T01:02:17.526Z,1001.12
2019-03-01T01:03:17.521Z,1001.09
2019-03-01T01:04:17.516Z,1001.10
2019-03-01T01:05:17.512Z,1001.10
2019-03-01T01:06:17.507Z,1001.12
2019-03-01T01:07:17.505Z,1001.11
2019-03-01T01:08:17.499Z,1001.09
2019-03-01T01:09:17.496Z,1001.13
2019-03-01T01:10:17.491Z,1001.10
2019-03-01T01:11:17.487Z,1001.15
2019-03-01T01:12:17.481Z,1001.10
2019-03-01T01:13:17.476Z,1001.06
2019-03-01T01:14:17.472Z,1001.10
2019-03-01T01:15:17.472Z,1001.11
2019-03-01T01:16:17.466Z,1001.04
2019-03-01T01:17:17.458Z,1001.05
2019-03-01T01:18:17.455Z,1001.04
2019-03-01T01:19:17.452Z,1000.99
2019-03-01T01:20:17.446Z,1000.97
2019-03-01T01:21:17.441Z,1000.97
2019-03-01T01:22:17.437Z,1000.96
2019-03-01T01:23:17.435Z,1000.98
2019-03-01T01:24:17.427Z,1000.97
2019-03-01T01:25:17.424Z,1000.98
2019-03-01T01:26:17.422Z,1000.93
2019-03-01T01:27:17.416Z,1000.96
2019-03-01T01:28:17.414Z,1000.91
2019-03-01T01:29:17.406Z,1000.95
2019-03-01T01:30:17.402Z,1000.94
2019-03-01T01:31:17.400Z,1000.92
2019-03-01T01:32:17.393Z,1000.94
2019-03-01T01:33:17.390Z,1000.93
2019-03-01T01:34:17.388Z,1000.93
2019-03-01T01:35:17.383Z,1000.89
2019-03-01T01:36:17.376Z,1000.91
2019-03-01T01:37:17.378Z,1000.91
2019-03-01T01:38:17.368Z,1000.89
2019-03-01T01:39:17.363Z,1000.91
2019-03-01T01:40:17.359Z,1000.87
2019-03-01T01:41:17.356Z,1000.87
2019-03-01T01:42:17.349Z,1000.87
2019-03-01T01:43:17.345Z,1000.87
2019-03-01T01:44:17.343Z,1000.88
2019-03-01T01:45:17.337Z,1000.84
2019-03-01T01:46:17.333Z,1000.82
2019-03-01T01:47:17.330Z,1000.80
2019-03-01T01:48:17.323Z,1000.79
2019-03-01T01:49:17.318Z,1000.79
2019-03-01T01:50:17.315Z,1000.77
2019-03-01T01:51:17.311Z,1000.75
2019-03-01T01:52:17.310Z,1000.77
2019-03-01T01:53:17.303Z,1000.72
2019-03-01T01:54:17.298Z,1000.74
2019-03-01T01:55:17.293Z,1000.77
2019-03-01T01:56:17.287Z,1000.74
2019-03-01T01:57:17.285Z,1000.71
2019-03-01T01:58:17.279Z,1000.71
2019-03-01T01:59:17.280Z,1000.68
2019-03-01T02:00:17.280Z,1000.70
2019-03-01T02:01:17.267Z,1000.66
2019-03-01T02:02:17.266Z,1000.70
2019-03-01T02:03:17.258Z,1000.65
2019-03-01T02:04:17.252Z,1000.66
2019-03-01T02:05:17.249Z,1000.60
2019-03-01T02:06:17.245Z,1000.65
2019-03-01T02:07:17.240Z,1000.60
2019-03-01T02:08:17.236Z,1000.62
2019-03-01T02:09:17.231Z,1000.63
2019-03-01T02:10:17.227Z,1000.61
2019-03-01T02:11:17.225Z,1000.59
2019-03-01T02:12:17.217Z,1000.61
2019-03-01T02:13:17.215Z,1000.57
2019-03-01T02:14:17.209Z,1000.60
2019-03-01T02:15:17.210Z,1000.60
2019-03-01T02:16:17.198Z,1000.63
2019-03-01T02:17:17.195Z,1000.59
2019-03-01T02:18:17.191Z,1000.64
2019-03-01T02:19:17.196Z,1000.57
2019-03-01T02:20:17.187Z,1000.59
2019-03-01T02:21:17.178Z,1000.63
2019-03-01T02:22:17.175Z,1000.59
2019-03-01T02:23:17.170Z,1000.56
2019-03-01T02:24:17.165Z,1000.48
2019-03-01T02:25:17.163Z,1000.55
2019-03-01T02:26:17.158Z,1000.52
2019-03-01T02:27:17.151Z,1000.47
2019-03-01T02:28:17.146Z,1000.48
2019-03-01T02:29:17.143Z,1000.45
2019-03-01T02:30:17.138Z,1000.42
2019-03-01T02:31:17.135Z,1000.46
2019-03-01T02:32:17.129Z,1000.44
2019-03-01T02:33:17.125Z,1000.44
2019-03-01T02:34:17.121Z,1000.45
2019-03-01T02:35:17.119Z,1000.44
2019-03-01T02:36:17.113Z,1000.40
2019-03-01T02:37:17.107Z,1000.40
2019-03-01T02:38:17.104Z,1000.41
2019-03-01T02:39:17.104Z,1000.42
2019-03-01T02:40:17.097Z,1000.44
2019-03-01T02:41:17.094Z,1000.45
2019-03-01T02:42:17.085Z,1000.45
2019-03-01T02:43:17.081Z,1000.43
2019-03-01T02:44:17.077Z,1000.38
2019-03-01T02:45:17.072Z,1000.40
2019-03-01T02:46:17.068Z,1000.38
2019-03-01T02:47:17.065Z,1000.41
2019-03-01T02:48:17.059Z,1000.41
2019-03-01T02:49:17.055Z,1000.39
2019-03-01T02:50:17.051Z,1000.39
2019-03-01T02:51:17.048Z,1000.37
2019-03-01T02:52:17.042Z,1000.38
2019-03-01T02:53:17.047Z,1000.38
2019-03-01T02:54:17.033Z,1000.35
2019-03-01T02:55:17.029Z,1000.36
2019-03-01T02:56:17.025Z,1000.37
2019-03-01T02:57:17.019Z,1000.35
2019-03-01T02:58:17.015Z,1000.30
2019-03-01T02:59:17.018Z,1000.31
2019-03-01T03:00:17.006Z,1000.33
2019-03-01T03:01:17.013Z,1000.29
2019-03-01T03:02:16.998Z,1000.26
2019-03-01T03:03:16.995Z,1000.31
2019-03-01T03:04:16.988Z,1000.29
2019-03-01T03:05:16.987Z,1000.30
2019-03-01T03:06:16.980Z,1000.25
2019-03-01T03:07:16.976Z,1000.26
2019-03-01T03:08:16.974Z,1000.23
2019-03-01T03:09:16.967Z,1000.22
2019-03-01T03:10:16.964Z,1000.21
2019-03-01T03:11:16.965Z,1000.22
2019-03-01T03:12:16.952Z,1000.20
2019-03-01T03:13:16.949Z,1000.14
2019-03-01T03:14:16.944Z,1000.19
2019-03-01T03:15:16.941Z,1000.20
2019-03-01T03:16:16.935Z,1000.22
2019-03-01T03:17:16.931Z,1000.22
2019-03-01T03:18:16.931Z,1000.18
2019-03-01T03:19:16.923Z,1000.21
2019-03-01T03:20:16.918Z,1000.15
2019-03-01T03:21:16.913Z,1000.20
2019-03-01T03:22:16.912Z,1000.21
2019-03-01T03:23:16.908Z,1000.20
2019-03-01T03:24:16.900Z,1000.18
2019-03-01T03:25:16.897Z,1000.18
2019-03-01T03:26:16.893Z,1000.16
2019-03-01T03:27:16.889Z,1000.19
2019-03-01T03:28:16.883Z,1000.18
2019-03-01T03:29:16.883Z,1000.16
2019-03-01T03:30:16.876Z,1000.17
2019-03-01T03:31:16.887Z,1000.17
2019-03-01T03:32:16.867Z,1000.19
2019-03-01T03:33:16.862Z,1000.16
2019-03-01T03:34:16.864Z,1000.20
2019-03-01T03:35:16.855Z,1000.20
2019-03-01T03:36:16.848Z,1000.22
2019-03-01T03:37:16.844Z,1000.24
2019-03-01T03:38:16.841Z,1000.23
2019-03-01T03:39:16.837Z,1000.22
2019-03-01T03:40:16.831Z,1000.21
2019-03-01T03:41:16.826Z,1000.21
2019-03-01T03:42:16.825Z,1000.22
2019-03-01T03:43:16.818Z,1000.27
2019-03-01T03:44:16.813Z,1000.24
2019-03-01T03:45:16.809Z,1000.23
2019-03-01T03:46:16.808Z,1000.23
2019-03-01T03:47:16.799Z,1000.24
2019-03-01T03:48:16.821Z,1000.26
2019-03-01T03:49:16.802Z,1000.25
2019-03-01T03:50:16.785Z,1000.23
2019-03-01T03:51:16.783Z,1000.22
2019-03-01T03:52:16.778Z,1000.24
2019-03-01T03:53:16.773Z,1000.23
2019-03-01T03:54:16.769Z,1000.21
2019-03-01T03:55:16.766Z,1000.23
2019-03-01T03:56:16.760Z,1000.24
2019-03-01T03:57:16.754Z,1000.25
2019-03-01T03:58:16.752Z,1000.27
2019-03-01T03:59:16.748Z,1000.21
2019-03-01T04:00:16.747Z,1000.28
2019-03-01T04:01:16.737Z,1000.24
2019-03-01T04:02:16.734Z,1000.26
2019-03-01T04:03:16.731Z,1000.26
2019-03-01T04:04:16.724Z,1000.24
2019-03-01T04:05:16.719Z,1000.23
2019-03-01T04:06:16.717Z,1000.23
2019-03-01T04:07:16.711Z,1000.23
2019-03-01T04:08:16.707Z,1000.26
2019-03-01T04:09:16.703Z,1000.23
2019-03-01T04:10:16.698Z,1000.23
2019-03-01T04:11:16.696Z,1000.20
2019-03-01T04:12:16.687Z,1000.24
2019-03-01T04:13:16.921Z,1000.26
2019-03-01T04:14:16.681Z,1000.24
2019-03-01T04:15:16.695Z,1000.23
2019-03-01T04:16:16.676Z,1000.22
2019-03-01T04:17:16.677Z,1000.24
2019-03-01T04:18:16.663Z,1000.28
2019-03-01T04:19:16.659Z,1000.20
2019-03-01T04:20:16.654Z,1000.25
2019-03-01T04:21:16.653Z,1000.27
2019-03-01T04:22:16.644Z,1000.23
2019-03-01T04:23:16.642Z,1000.26
2019-03-01T04:24:16.642Z,1000.21
2019-03-01T04:25:16.632Z,1000.25
2019-03-01T04:26:16.627Z,1000.23
2019-03-01T04:27:16.623Z,1000.23
2019-03-01T04:28:16.618Z,1000.22
2019-03-01T04:29:16.615Z,1000.27
2019-03-01T04:30:16.609Z,1000.19
2019-03-01T04:31:16.605Z,1000.21
2019-03-01T04:32:16.598Z,1000.22
2019-03-01T04:33:16.600Z,1000.19
2019-03-01T04:34:16.593Z,1000.20
2019-03-01T04:35:16.587Z,1000.15
2019-03-01T04:36:16.581Z,1000.11
2019-03-01T04:37:16.577Z,1000.15
2019-03-01T04:38:16.573Z,1000.09
2019-03-01T04:39:16.568Z,1000.12
2019-03-01T04:40:16.563Z,1000.11
2019-03-01T04:41:16.559Z,1000.08
2019-03-01T04:42:16.554Z,1000.09
2019-03-01T04:43:16.551Z,1000.09
2019-03-01T04:44:16.544Z,1000.07
2019-03-01T04:45:16.540Z,1000.03
2019-03-01T04:46:16.537Z,1000.01
2019-03-01T04:47:16.532Z,1000.01
2019-03-01T04:48:16.528Z,1000.00
2019-03-01T04:49:16.525Z,1000.03
2019-03-01T04:50:16.521Z,1000.01
2019-03-01T04:51:16.516Z,1000.00
2019-03-01T04:52:16.511Z,1000.04
2019-03-01T04:53:16.505Z,1000.04
2019-03-01T04:54:16.502Z,1000.05
2019-03-01T04:55:16.496Z,1000.11
2019-03-01T04:56:16.492Z,1000.14
2019-03-01T04:57:16.487Z,1000.13
2019-03-01T04:58:16.483Z,1000.17
2019-03-01T04:59:16.480Z,1000.19
2019-03-01T05:00:16.474Z,1000.20
2019-03-01T05:01:16.473Z,1000.22
2019-03-01T05:02:16.469Z,1000.22
2019-03-01T05:03:16.464Z,1000.21
2019-03-01T05:04:16.456Z,1000.23
2019-03-01T05:05:16.455Z,1000.21
2019-03-01T05:06:16.448Z,1000.28
2019-03-01T05:07:16.443Z,1000.24
2019-03-01T05:08:16.439Z,1000.25
2019-03-01T05:09:16.435Z,1000.28
2019-03-01T05:10:16.431Z,1000.28
2019-03-01T05:11:16.429Z,1000.32
2019-03-01T05:12:16.422Z,1000.33
2019-03-01T05:13:16.419Z,1000.35
2019-03-01T05:14:16.413Z,1000.32
2019-03-01T05:15:16.408Z,1000.35
2019-03-01T05:16:16.404Z,1000.32
2019-03-01T05:17:16.399Z,1000.34
2019-03-01T05:18:16.395Z,1000.37
2019-03-01T05:19:16.390Z,1000.39
2019-03-01T05:20:16.388Z,1000.40
2019-03-01T05:21:16.381Z,1000.35
2019-03-01T05:22:16.378Z,1000.39
2019-03-01T05:23:16.373Z,1000.34
2019-03-01T05:24:16.368Z,1000.38
2019-03-01T05:25:16.364Z,1000.32
2019-03-01T05:26:16.361Z,1000.36
2019-03-01T05:27:16.360Z,1000.39
2019-03-01T05:28:16.349Z,1000.39
2019-03-01T05:29:16.347Z,1000.33
2019-03-01T05:30:16.341Z,1000.37
2019-03-01T05:31:16.339Z,1000.38
2019-03-01T05:32:16.331Z,1000.41
2019-03-01T05:33:16.327Z,1000.36
2019-03-01T05:34:16.324Z,1000.34
2019-03-01T05:35:16.323Z,1000.33
2019-03-01T05:36:16.313Z,1000.35
2019-03-01T05:37:16.310Z,1000.39
2019-03-01T05:38:21.723Z,1000.35
2019-03-01T05:39:16.300Z,1000.41
2019-03-01T05:40:16.296Z,1000.39
2019-03-01T05:41:16.291Z,1000.48
2019-03-01T05:42:16.287Z,1000.48
2019-03-01T05:43:16.283Z,1000.42
2019-03-01T05:44:16.284Z,1000.44
2019-03-01T05:45:16.273Z,1000.46
2019-03-01T05:46:16.272Z,1000.43
2019-03-01T05:47:16.268Z,1000.36
2019-03-01T05:48:16.259Z,1000.36
2019-03-01T05:49:16.255Z,1000.37
2019-03-01T05:50:16.254Z,1000.41
2019-03-01T05:51:16.246Z,1000.40
2019-03-01T05:52:16.240Z,1000.41
2019-03-01T05:53:16.237Z,1000.43
2019-03-01T05:54:16.231Z,1000.46
2019-03-01T05:55:16.227Z,1000.47
2019-03-01T05:56:16.221Z,1000.42
2019-03-01T05:57:16.219Z,1000.43
2019-03-01T05:58:16.731Z,1000.48
2019-03-01T05:59:16.213Z,1000.50
2019-03-01T06:00:16.205Z,1000.48
2019-03-01T06:01:16.201Z,1000.52
2019-03-01T06:02:16.196Z,1000.54
2019-03-01T06:03:16.190Z,1000.53
2019-03-01T06:04:16.185Z,1000.53
2019-03-01T06:05:16.182Z,1000.57
2019-03-01T06:06:16.176Z,1000.56
2019-03-01T06:07:16.172Z,1000.58
2019-03-01T06:08:16.167Z,1000.60
2019-03-01T06:09:16.163Z,1000.63
2019-03-01T06:10:16.159Z,1000.60
2019-03-01T06:11:16.154Z,1000.61
2019-03-01T06:12:16.149Z,1000.61
2019-03-01T06:13:16.145Z,1000.59
2019-03-01T06:14:16.141Z,1000.55
2019-03-01T06:15:16.137Z,1000.61
2019-03-01T06:16:16.130Z,1000.63
2019-03-01T06:17:16.128Z,1000.62
2019-03-01T06:18:16.121Z,1000.62
2019-03-01T06:19:16.117Z,1000.64
2019-03-01T06:20:16.112Z,1000.60
2019-03-01T06:21:16.108Z,1000.61
2019-03-01T06:22:16.102Z,1000.65
2019-03-01T06:23:16.099Z,1000.65
2019-03-01T06:24:16.094Z,1000.68
2019-03-01T06:25:16.090Z,1000.65
2019-03-01T06:26:16.099Z,1000.63
2019-03-01T06:27:16.463Z,1000.59
2019-03-01T06:28:16.076Z,1000.63
2019-03-01T06:29:16.070Z,1000.63
2019-03-01T06:30:16.067Z,1000.65
2019-03-01T06:31:16.061Z,1000.64
2019-03-01T06:32:16.056Z,1000.64
2019-03-01T06:33:16.051Z,1000.62
2019-03-01T06:34:16.048Z,1000.63
2019-03-01T06:35:16.044Z,1000.60
2019-03-01T06:36:16.037Z,1000.63
2019-03-01T06:37:16.034Z,1000.62
2019-03-01T06:38:16.185Z,1000.67
2019-03-01T06:39:16.035Z,1000.65
2019-03-01T06:40:16.023Z,1000.62
2019-03-01T06:41:16.016Z,1000.64
2019-03-01T06:42:16.010Z,1000.71
2019-03-01T06:43:16.006Z,1000.71
2019-03-01T06:44:16.000Z,1000.75
2019-03-01T06:45:15.997Z,1000.71
2019-03-01T06:46:15.992Z,1000.65
2019-03-01T06:47:15.988Z,1000.76
2019-03-01T06:48:15.983Z,1000.67
2019-03-01T06:49:15.982Z,1000.72
2019-03-01T06:50:15.979Z,1000.69
2019-03-01T06:51:15.976Z,1000.74
2019-03-01T06:52:15.965Z,1000.75
2019-03-01T06:53:15.961Z,1000.74
2019-03-01T06:54:15.957Z,1000.72
2019-03-01T06:55:15.952Z,1000.71
2019-03-01T06:56:15.949Z,1000.70
2019-03-01T06:57:15.941Z,1000.77
2019-03-01T06:58:15.938Z,1000.75
2019-03-01T06:59:15.933Z,1000.73
2019-03-01T07:00:15.928Z,1000.80
2019-03-01T07:01:15.924Z,1000.80
2019-03-01T07:02:15.920Z,1000.82
2019-03-01T07:03:15.916Z,1000.81
2019-03-01T07:04:15.910Z,1000.83
2019-03-01T07:05:15.906Z,1000.82
2019-03-01T07:06:15.901Z,1000.87
2019-03-01T07:07:15.897Z,1000.88
2019-03-01T07:08:15.894Z,1000.94
2019-03-01T07:09:15.890Z,1000.92
2019-03-01T07:10:15.882Z,1000.97
2019-03-01T07:11:15.878Z,1001.00
2019-03-01T07:12:15.873Z,1001.00
2019-03-01T07:13:15.871Z,1001.00
2019-03-01T07:14:15.864Z,1001.03
2019-03-01T07:15:15.859Z,1001.02
2019-03-01T07:16:15.856Z,1001.07
2019-03-01T07:17:15.850Z,1001.12
2019-03-01T07:18:15.847Z,1001.12
2019-03-01T07:19:15.854Z,1001.11
2019-03-01T07:20:15.836Z,1001.10
2019-03-01T07:21:15.833Z,1001.15
2019-03-01T07:22:15.828Z,1001.17
2019-03-01T07:23:15.823Z,1001.18
2019-03-01T07:24:15.917Z,1001.13
2019-03-01T07:25:15.814Z,1001.20
2019-03-01T07:26:15.811Z,1001.21
2019-03-01T07:27:15.806Z,1001.18
2019-03-01T07:28:15.799Z,1001.17
2019-03-01T07:29:15.796Z,1001.23
2019-03-01T07:30:15.798Z,1001.24
2019-03-01T07:31:15.786Z,1001.25
2019-03-01T07:32:15.783Z,1001.26
2019-03-01T07:33:15.776Z,1001.33
2019-03-01T07:34:15.772Z,1001.31
2019-03-01T07:35:15.768Z,1001.33
2019-03-01T07:36:15.763Z,1001.30
2019-03-01T07:37:15.759Z,1001.29
2019-03-01T07:38:15.753Z,1001.35
2019-03-01T07:39:15.750Z,1001.33
2019-03-01T07:40:15.745Z,1001.37
2019-03-01T07:41:15.739Z,1001.38
2019-03-01T07:42:15.735Z,1001.37
2019-03-01T07:43:15.732Z,1001.40
2019-03-01T07:44:15.725Z,1001.41
2019-03-01T07:45:15.721Z,1001.44
2019-03-01T07:46:15.716Z,1001.45
2019-03-01T07:47:15.713Z,1001.46
2019-03-01T07:48:15.706Z,1001.49
2019-03-01T07:49:15.701Z,1001.44
2019-03-01T07:50:15.698Z,1001.46
2019-03-01T07:51:15.693Z,1001.52
2019-03-01T07:52:15.688Z,1001.48
2019-03-01T07:53:15.683Z,1001.54
2019-03-01T07:54:16.820Z,1001.50
2019-03-01T07:55:15.674Z,1001.59
2019-03-01T07:56:15.670Z,1001.52
2019-03-01T07:57:15.697Z,1001.55
2019-03-01T07:58:15.660Z,1001.53
2019-03-01T07:59:15.657Z,1001.58
2019-03-01T08:00:15.649Z,1001.60
2019-03-01T08:01:15.647Z,1001.59
2019-03-01T08:02:15.641Z,1001.66
2019-03-01T08:03:15.985Z,1001.65
2019-03-01T08:04:15.631Z,1001.67
2019-03-01T08:05:16.374Z,1001.63
2019-03-01T08:06:15.622Z,1001.63
2019-03-01T08:07:15.617Z,1001.68
2019-03-01T08:08:15.611Z,1001.71
2019-03-01T08:09:15.611Z,1001.69
2019-03-01T08:10:20.564Z,1001.71
2019-03-01T08:11:15.597Z,1001.73
2019-03-01T08:12:15.592Z,1001.75
2019-03-01T08:13:17.664Z,1001.76
2019-03-01T08:14:15.587Z,1001.77
2019-03-01T08:15:15.577Z,1001.83
2019-03-01T08:16:16.574Z,1001.80
2019-03-01T08:17:15.568Z,1001.77
2019-03-01T08:18:15.572Z,1001.80
2019-03-01T08:19:17.041Z,1001.81
2019-03-01T08:20:15.555Z,1001.86
2019-03-01T08:21:15.554Z,1001.90
2019-03-01T08:22:15.547Z,1001.87
2019-03-01T08:23:15.542Z,1001.89
2019-03-01T08:24:15.537Z,1001.93
2019-03-01T08:25:22.511Z,1001.97
2019-03-01T08:26:15.526Z,1002.02
2019-03-01T08:27:15.523Z,1002.02
2019-03-01T08:28:18.583Z,1001.98
2019-03-01T08:29:15.512Z,1002.09
2019-03-01T08:30:15.510Z,1002.05
2019-03-01T08:31:17.517Z,1002.05
2019-03-01T08:32:15.498Z,1002.07
2019-03-01T08:33:15.498Z,1002.10
2019-03-01T08:34:17.938Z,1002.08
2019-03-01T08:35:15.486Z,1002.09
2019-03-01T08:36:15.478Z,1002.10
2019-03-01T08:37:17.567Z,1002.15
2019-03-01T08:38:15.470Z,1002.12
2019-03-01T08:39:15.467Z,1002.16
2019-03-01T08:40:15.626Z,1002.15
2019-03-01T08:41:15.456Z,1002.16
2019-03-01T08:42:15.452Z,1002.20
2019-03-01T08:43:15.447Z,1002.18
2019-03-01T08:44:15.441Z,1002.22
2019-03-01T08:45:15.438Z,1002.11
2019-03-01T08:46:15.434Z,1002.14
2019-03-01T08:47:20.293Z,1002.16
2019-03-01T08:48:15.423Z,1002.16
2019-03-01T08:49:15.420Z,1002.14
2019-03-01T08:50:15.416Z,1002.16
2019-03-01T08:51:15.410Z,1002.20
2019-03-01T08:52:15.405Z,1002.21
2019-03-01T08:53:16.168Z,1002.20
2019-03-01T08:54:15.396Z,1002.22
2019-03-01T08:55:15.393Z,1002.21
2019-03-01T08:56:15.531Z,1002.29
2019-03-01T08:57:15.382Z,1002.25
2019-03-01T08:58:15.378Z,1002.35
2019-03-01T08:59:17.594Z,1002.31
2019-03-01T09:00:15.370Z,1002.36
2019-03-01T09:01:15.365Z,1002.40
2019-03-01T09:02:15.361Z,1002.42
2019-03-01T09:03:16.335Z,1002.40
2019-03-01T09:04:17.440Z,1002.43
2019-03-01T09:05:15.346Z,1002.43
2019-03-01T09:06:15.342Z,1002.41
2019-03-01T09:07:15.339Z,1002.41
2019-03-01T09:08:15.330Z,1002.42
2019-03-01T09:09:17.725Z,1002.42
2019-03-01T09:10:15.323Z,1002.43
2019-03-01T09:11:15.317Z,1002.40
2019-03-01T09:12:15.317Z,1002.42
2019-03-01T09:13:15.309Z,1002.42
2019-03-01T09:14:15.305Z,1002.45
2019-03-01T09:15:15.302Z,1002.43
2019-03-01T09:16:15.295Z,1002.46
2019-03-01T09:17:15.291Z,1002.45
2019-03-01T09:18:15.427Z,1002.48
2019-03-01T09:19:15.280Z,1002.50
2019-03-01T09:20:15.275Z,1002.49
2019-03-01T09:21:15.272Z,1002.51
2019-03-01T09:22:15.266Z,1002.50
2019-03-01T09:23:22.795Z,1002.49
2019-03-01T09:24:15.258Z,1002.54
2019-03-01T09:25:15.251Z,1002.52
2019-03-01T09:26:16.694Z,1002.53
2019-03-01T09:27:15.243Z,1002.54
2019-03-01T09:28:15.239Z,1002.54
2019-03-01T09:29:18.467Z,1002.60
2019-03-01T09:30:15.230Z,1002.60
2019-03-01T09:31:15.223Z,1002.65
2019-03-01T09:32:15.218Z,1002.64
2019-03-01T09:33:17.145Z,1002.67
2019-03-01T09:34:15.211Z,1002.67
2019-03-01T09:35:15.205Z,1002.68
2019-03-01T09:36:18.053Z,1002.70
2019-03-01T09:37:15.196Z,1002.69
2019-03-01T09:38:15.190Z,1002.74
2019-03-01T09:39:18.100Z,1002.73
2019-03-01T09:40:15.181Z,1002.78
2019-03-01T09:41:15.178Z,1002.82
2019-03-01T09:42:15.621Z,1002.80
2019-03-01T09:43:15.169Z,1002.82
2019-03-01T09:44:15.164Z,1002.88
2019-03-01T09:45:15.158Z,1002.92
2019-03-01T09:46:15.159Z,1002.89
2019-03-01T09:47:15.149Z,1002.92
2019-03-01T09:48:15.144Z,1002.93
2019-03-01T09:49:15.139Z,1002.98
2019-03-01T09:50:15.135Z,1003.00
2019-03-01T09:51:15.920Z,1003.03
2019-03-01T09:52:15.126Z,1003.04
2019-03-01T09:53:15.123Z,1002.99
2019-03-01T09:54:15.118Z,1003.04
2019-03-01T09:55:15.114Z,1003.06
2019-03-01T09:56:15.108Z,1003.07
2019-03-01T09:57:15.668Z,1003.13
2019-03-01T09:58:15.104Z,1003.06
2019-03-01T09:59:15.093Z,1003.05
2019-03-01T10:00:15.089Z,1003.09
2019-03-01T10:01:15.085Z,1003.04
2019-03-01T10:02:15.080Z,1003.07
2019-03-01T10:03:15.074Z,1003.04
2019-03-01T10:04:15.069Z,1003.13
2019-03-01T10:05:15.067Z,1003.18
2019-03-01T10:06:15.060Z,1003.14
2019-03-01T10:07:15.057Z,1003.18
2019-03-01T10:08:15.051Z,1003.13
2019-03-01T10:09:15.055Z,1003.19
2019-03-01T10:10:15.042Z,1003.16
2019-03-01T10:11:15.036Z,1003.22
2019-03-01T10:12:15.031Z,1003.21
2019-03-01T10:13:15.027Z,1003.26
2019-03-01T10:14:15.023Z,1003.30
2019-03-01T10:15:15.019Z,1003.33
2019-03-01T10:16:15.012Z,1003.34
2019-03-01T10:17:15.005Z,1003.35
2019-03-01T10:18:15.006Z,1003.36
2019-03-01T10:19:14.998Z,1003.32
2019-03-01T10:20:14.992Z,1003.49
2019-03-01T10:21:14.988Z,1003.46
2019-03-01T10:22:14.983Z,1003.38
2019-03-01T10:23:14.979Z,1003.48
2019-03-01T10:24:14.974Z,1003.52
2019-03-01T10:25:14.969Z,1003.49
2019-03-01T10:26:14.965Z,1003.48
2019-03-01T10:27:14.958Z,1003.54
2019-03-01T10:28:14.953Z,1003.54
2019-03-01T10:29:14.948Z,1003.61
2019-03-01T10:30:14.944Z,1003.64
2019-03-01T10:31:14.940Z,1003.57
2019-03-01T10:32:14.933Z,1003.65
2019-03-01T10:33:14.928Z,1003.81
2019-03-01T10:34:14.923Z,1003.73
2019-03-01T10:35:14.918Z,1003.72
2019-03-01T10:36:14.916Z,1003.69
2019-03-01T10:37:14.907Z,1003.67
2019-03-01T10:38:14.902Z,1003.76
2019-03-01T10:39:14.898Z,1003.77
2019-03-01T10:40:14.893Z,1003.71
2019-03-01T10:41:14.887Z,1003.70
2019-03-01T10:42:14.883Z,1003.78
2019-03-01T10:43:14.878Z,1003.77
2019-03-01T10:44:14.873Z,1003.83
2019-03-01T10:45:14.867Z,1003.86
2019-03-01T10:46:14.874Z,1003.85
2019-03-01T10:47:14.858Z,1003.87
2019-03-01T10:48:14.850Z,1003.87
2019-03-01T10:49:14.848Z,1003.90
2019-03-01T10:50:14.841Z,1003.91
2019-03-01T10:51:14.843Z,1003.92
2019-03-01T10:52:14.830Z,1003.96
2019-03-01T10:53:14.942Z,1003.99
2019-03-01T10:54:14.818Z,1003.97
2019-03-01T10:55:14.819Z,1004.04
2019-03-01T10:56:14.808Z,1004.04
2019-03-01T10:57:14.803Z,1004.05
2019-03-01T10:58:14.803Z,1004.11
2019-03-01T10:59:14.794Z,1004.14
2019-03-01T11:00:14.790Z,1004.10
2019-03-01T11:01:14.783Z,1004.12
2019-03-01T11:02:14.777Z,1004.12
2019-03-01T11:03:14.774Z,1004.12
2019-03-01T11:04:14.767Z,1004.17
2019-03-01T11:05:14.765Z,1004.14
2019-03-01T11:06:14.756Z,1004.29
2019-03-01T11:07:14.751Z,1004.21
2019-03-01T11:08:14.746Z,1004.21
2019-03-01T11:09:14.742Z,1004.28
2019-03-01T11:10:14.737Z,1004.23
2019-03-01T11:11:14.733Z,1004.35
2019-03-01T11:12:14.724Z,1004.27
2019-03-01T11:13:14.719Z,1004.27
2019-03-01T11:14:14.715Z,1004.30
2019-03-01T11:15:14.708Z,1004.31
2019-03-01T11:16:14.702Z,1004.35
2019-03-01T11:17:14.699Z,1004.36
2019-03-01T11:18:14.691Z,1004.37
2019-03-01T11:19:14.687Z,1004.41
2019-03-01T11:20:14.681Z,1004.41
2019-03-01T11:21:14.673Z,1004.39
2019-03-01T11:22:14.669Z,1004.45
2019-03-01T11:23:14.665Z,1004.43
2019-03-01T11:24:14.656Z,1004.45
2019-03-01T11:25:14.651Z,1004.48
2019-03-01T11:26:14.645Z,1004.55
2019-03-01T11:27:14.640Z,1004.57
2019-03-01T11:28:14.635Z,1004.62
2019-03-01T11:29:14.638Z,1004.58
2019-03-01T11:30:14.624Z,1004.59
2019-03-01T11:31:14.620Z,1004.54
2019-03-01T11:32:14.611Z,1004.53
2019-03-01T11:33:14.606Z,1004.55
2019-03-01T11:34:14.600Z,1004.54
2019-03-01T11:35:14.595Z,1004.63
2019-03-01T11:36:14.587Z,1004.55
2019-03-01T11:37:14.585Z,1004.55
2019-03-01T11:38:14.580Z,1004.52
2019-03-01T11:39:14.571Z,1004.59
2019-03-01T11:40:14.565Z,1004.60
2019-03-01T11:41:14.560Z,1004.62
2019-03-01T11:42:14.558Z,1004.60
2019-03-01T11:43:14.550Z,1004.63
2019-03-01T11:44:14.541Z,1004.60
2019-03-01T11:45:14.539Z,1004.62
2019-03-01T11:46:14.530Z,1004.61
2019-03-01T11:47:14.525Z,1004.70
2019-03-01T11:48:14.521Z,1004.67
2019-03-01T11:49:14.513Z,1004.70
2019-03-01T11:50:14.511Z,1004.67
2019-03-01T11:51:14.501Z,1004.69
2019-03-01T11:52:14.495Z,1004.75
2019-03-01T11:53:14.489Z,1004.76
2019-03-01T11:54:14.489Z,1004.76
2019-03-01T11:55:14.479Z,1004.80
2019-03-01T11:56:14.471Z,1004.80
2019-03-01T11:57:14.468Z,1004.86
2019-03-01T11:58:14.460Z,1004.89
2019-03-01T11:59:14.458Z,1004.86
2019-03-01T12:00:14.448Z,1004.83
2019-03-01T12:01:17.210Z,1004.93
2019-03-01T12:02:14.437Z,1004.91
2019-03-01T12:03:15.386Z,1004.98
2019-03-01T12:04:14.428Z,1004.95
2019-03-01T12:05:14.423Z,1004.95